Time;durP1;ratioP1;P1;durP2;ratioP2;P2;SDS_P1;SDS_P2;PMS_P1;PMS_P2;Temp;Humidity;BMP_temperature;BMP_pressure;BME280_temperature;BME280_humidity;BME280_pressure;Samples;Min_cycle;Max_cycle;Signal;HPM_P1;HPM_P2
2022/11/08 00:01:30;;;;;;;0.10;0.10;;;13.20;99.90;;;;;;5069153;28;20052;-65
2022/11/08 00:03:56;;;;;;;0.10;0.10;;;13.20;99.90;;;;;;5060168;28;20501;-65
2022/11/08 00:14:35;;;;;;;0.10;0.10;;;13.20;99.90;;;;;;5051440;28;20163;-64
2022/11/08 00:17:00;;;;;;;0.10;0.10;;;13.20;99.90;;;;;;5051828;28;20106;-65
2022/11/08 00:19:26;;;;;;;1.35;0.65;;;13.20;99.90;;;;;;5051413;28;20091;-65
2022/11/08 00:21:52;;;;;;;0.10;0.10;;;13.20;99.90;;;;;;5032260;28;20052;-65
2022/11/08 00:24:17;;;;;;;0.10;0.10;;;13.20;99.90;;;;;;5058428;28;20047;-65
2022/11/08 00:26:43;;;;;;;0.68;0.68;;;13.20;99.90;;;;;;5052307;28;20420;-64
2022/11/08 00:29:09;;;;;;;0.20;0.20;;;13.20;99.90;;;;;;5036311;28;20468;-66
2022/11/08 00:31:34;;;;;;;0.15;0.15;;;13.20;99.90;;;;;;5070159;28;20082;-65
2022/11/08 00:34:00;;;;;;;0.10;0.10;;;13.20;99.90;;;;;;5070978;28;20587;-65
2022/11/08 00:36:26;;;;;;;0.10;0.10;;;13.20;99.90;;;;;;5050306;28;20056;-65
2022/11/08 00:38:51;;;;;;;0.10;0.10;;;13.20;99.90;;;;;;5050916;28;20040;-65
2022/11/08 00:41:17;;;;;;;0.25;0.25;;;13.20;99.90;;;;;;5067601;28;20259;-65
2022/11/08 00:43:43;;;;;;;0.10;0.10;;;13.20;99.90;;;;;;5057667;28;20381;-64
2022/11/08 00:46:09;;;;;;;0.10;0.10;;;13.20;99.90;;;;;;5043512;28;20086;-64
2022/11/08 00:48:34;;;;;;;0.57;0.57;;;13.20;99.90;;;;;;5051928;28;20457;-65
2022/11/08 00:51:02;;;;;;;1.27;0.75;;;13.20;99.90;;;;;;5065847;28;20385;-64
2022/11/08 00:53:28;;;;;;;0.30;0.30;;;13.20;99.90;;;;;;5049980;28;20082;-65
2022/11/08 00:56:01;;;;;;;0.10;0.10;;;13.20;99.90;;;;;;5031735;28;20083;-65
2022/11/08 00:58:27;;;;;;;0.10;0.10;;;13.20;99.90;;;;;;5031269;28;20132;-65
2022/11/08 01:00:54;;;;;;;0.22;0.22;;;13.20;99.90;;;;;;5050604;28;20037;-65
2022/11/08 01:03:20;;;;;;;1.35;0.82;;;13.20;99.90;;;;;;5030879;28;20049;-65
2022/11/08 01:05:53;;;;;;;1.27;0.95;;;13.20;99.90;;;;;;5055751;28;20093;-65
2022/11/08 01:08:21;;;;;;;1.65;0.57;;;13.10;99.90;;;;;;5056324;28;20551;-64
2022/11/08 01:10:49;;;;;;;0.20;0.20;;;13.20;99.90;;;;;;5049790;28;20069;-65
2022/11/08 01:13:15;;;;;;;0.10;0.10;;;13.20;99.90;;;;;;5066617;28;20044;-65
2022/11/08 01:15:43;;;;;;;0.32;0.32;;;13.10;99.90;;;;;;5070608;28;20433;-65
2022/11/08 01:18:10;;;;;;;0.10;0.10;;;13.10;99.90;;;;;;5063771;28;20215;-65
2022/11/08 01:20:43;;;;;;;0.30;0.30;;;13.10;99.90;;;;;;5049811;28;20048;-65
2022/11/08 01:23:10;;;;;;;0.10;0.10;;;13.10;99.90;;;;;;5030520;28;20057;-64
2022/11/08 01:25:41;;;;;;;0.32;0.32;;;13.10;99.90;;;;;;5031849;28;20131;-65
2022/11/08 01:28:07;;;;;;;17.90;1.88;;;13.00;99.90;;;;;;5054087;28;20037;-64
2022/11/08 01:30:37;;;;;;;0.60;0.60;;;13.00;99.90;;;;;;5052211;28;20063;-65
2022/11/08 01:33:04;;;;;;;0.10;0.10;;;13.00;99.90;;;;;;5060029;28;20037;-65
2022/11/08 01:35:31;;;;;;;0.13;0.13;;;13.00;99.90;;;;;;5051062;28;20156;-65
2022/11/08 01:37:58;;;;;;;0.30;0.30;;;13.00;99.90;;;;;;5059032;28;20037;-65
2022/11/08 01:40:24;;;;;;;0.35;0.22;;;13.00;99.90;;;;;;5036549;28;20037;-65
2022/11/08 01:42:50;;;;;;;0.32;0.32;;;13.00;99.90;;;;;;5070615;28;20144;-65
2022/11/08 01:45:55;;;;;;;0.10;0.10;;;13.00;99.90;;;;;;5072359;28;20518;-65
2022/11/08 01:48:21;;;;;;;0.00;0.00;;;13.00;99.90;;;;;;5052761;28;20045;-65
2022/11/08 01:50:47;;;;;;;0.10;0.10;;;13.00;99.90;;;;;;5052912;28;20049;-65
2022/11/08 01:53:13;;;;;;;0.35;0.30;;;13.00;99.90;;;;;;5052951;28;20048;-65
2022/11/08 01:55:39;;;;;;;0.10;0.10;;;12.90;99.90;;;;;;5051989;28;20080;-65
2022/11/08 01:58:17;;;;;;;0.20;0.20;;;13.00;99.90;;;;;;5053496;28;20437;-64
2022/11/08 02:00:43;;;;;;;0.00;0.00;;;12.90;99.90;;;;;;5072346;28;20551;-65
2022/11/08 02:03:12;;;;;;;0.10;0.10;;;12.90;99.90;;;;;;5072928;28;20170;-66
2022/11/08 02:05:39;;;;;;;0.13;0.13;;;12.90;99.90;;;;;;5052912;28;20523;-65
2022/11/08 02:08:14;;;;;;;0.03;0.03;;;12.80;99.90;;;;;;5052775;28;20450;-64
2022/11/08 02:10:43;;;;;;;0.55;0.55;;;12.80;99.90;;;;;;5056615;28;20082;-66
2022/11/08 02:13:14;;;;;;;0.00;0.00;;;12.80;99.90;;;;;;5055097;28;20090;-65
2022/11/08 02:15:40;;;;;;;0.10;0.10;;;12.80;99.90;;;;;;5052747;28;20076;-65
2022/11/08 02:18:06;;;;;;;0.30;0.30;;;12.80;99.90;;;;;;5053197;28;20033;-65
2022/11/08 02:20:33;;;;;;;2.60;0.80;;;12.70;99.90;;;;;;5052035;28;20594;-65
2022/11/08 02:23:18;;;;;;;0.25;0.25;;;12.70;99.90;;;;;;5052771;28;20123;-65
2022/11/08 02:25:43;;;;;;;0.10;0.10;;;12.60;99.90;;;;;;5052924;28;20549;-65
2022/11/08 02:28:09;;;;;;;0.43;0.38;;;12.60;99.90;;;;;;5052318;28;20314;-64
2022/11/08 02:30:36;;;;;;;0.10;0.10;;;12.50;99.90;;;;;;5052372;28;20053;-65
2022/11/08 02:33:16;;;;;;;0.00;0.00;;;12.50;99.90;;;;;;5052059;28;20404;-65
2022/11/08 02:35:44;;;;;;;0.03;0.03;;;12.40;99.90;;;;;;5052305;28;20041;-64
2022/11/08 02:38:10;;;;;;;2.72;1.08;;;12.40;99.90;;;;;;5059028;28;20103;-65
2022/11/08 02:40:53;;;;;;;0.10;0.10;;;12.30;99.90;;;;;;5070423;28;20064;-65
2022/11/08 02:43:20;;;;;;;0.10;0.10;;;12.30;99.90;;;;;;5036589;28;20061;-65
2022/11/08 02:45:46;;;;;;;3.28;0.32;;;12.30;99.90;;;;;;5053447;28;20037;-64
2022/11/08 02:48:12;;;;;;;2.83;2.17;;;12.30;99.90;;;;;;5050728;28;21186;-65
2022/11/08 02:50:38;;;;;;;0.10;0.10;;;12.30;99.90;;;;;;5052021;28;20131;-64
2022/11/08 02:53:04;;;;;;;0.10;0.10;;;12.20;99.90;;;;;;5058373;28;20045;-64
2022/11/08 02:55:32;;;;;;;0.10;0.10;;;12.20;99.90;;;;;;5055523;28;20446;-64
2022/11/08 02:57:57;;;;;;;0.30;0.30;;;12.20;99.90;;;;;;5066682;28;20496;-65
2022/11/08 03:00:23;;;;;;;1.55;1.23;;;12.20;99.90;;;;;;5070302;28;20091;-65
2022/11/08 03:02:53;;;;;;;0.10;0.10;;;12.10;99.90;;;;;;5058121;28;20048;-65
2022/11/08 03:05:19;;;;;;;0.20;0.20;;;12.10;99.90;;;;;;5058186;28;20059;-65
2022/11/08 03:07:45;;;;;;;0.00;0.00;;;12.10;99.90;;;;;;5054954;28;20099;-65
2022/11/08 03:10:11;;;;;;;0.10;0.10;;;12.10;99.90;;;;;;5050771;28;21070;-64
2022/11/08 03:12:37;;;;;;;28.55;1.40;;;12.10;99.90;;;;;;5062992;28;20507;-64
2022/11/08 03:15:05;;;;;;;0.00;0.00;;;12.10;99.90;;;;;;5058645;28;20082;-63
2022/11/08 03:17:30;;;;;;;0.10;0.10;;;12.10;99.90;;;;;;5066395;28;20040;-64
2022/11/08 03:19:56;;;;;;;0.10;0.10;;;12.10;99.90;;;;;;5040257;28;20160;-64
2022/11/08 03:22:22;;;;;;;0.80;0.80;;;12.10;99.90;;;;;;5038412;28;20043;-63
2022/11/08 03:24:48;;;;;;;0.10;0.10;;;12.10;99.90;;;;;;5069576;28;20047;-64
2022/11/08 03:27:14;;;;;;;0.10;0.10;;;12.10;99.90;;;;;;5063660;28;20041;-63
2022/11/08 03:29:42;;;;;;;0.10;0.10;;;12.10;99.90;;;;;;5051927;28;20065;-64
2022/11/08 03:32:08;;;;;;;0.10;0.10;;;12.00;99.90;;;;;;5059469;28;20095;-64
2022/11/08 03:34:34;;;;;;;0.10;0.10;;;12.00;99.90;;;;;;5068328;28;20036;-65
2022/11/08 03:36:59;;;;;;;0.20;0.20;;;12.00;99.90;;;;;;5071510;28;20075;-64
2022/11/08 03:39:25;;;;;;;0.30;0.30;;;12.00;99.90;;;;;;5064471;28;20406;-64
2022/11/08 03:41:51;;;;;;;0.22;0.22;;;12.00;99.90;;;;;;5062394;28;20043;-64
2022/11/08 03:44:16;;;;;;;1.90;0.90;;;12.00;99.90;;;;;;5061651;28;20048;-64
2022/11/08 03:46:42;;;;;;;0.10;0.10;;;11.90;99.90;;;;;;5054848;28;20053;-64
2022/11/08 03:49:07;;;;;;;0.10;0.10;;;11.90;99.90;;;;;;5044250;28;20444;-64
2022/11/08 03:51:33;;;;;;;0.10;0.10;;;11.90;99.90;;;;;;5054448;28;20036;-64
2022/11/08 03:53:59;;;;;;;0.10;0.10;;;11.80;99.90;;;;;;5051280;28;20048;-64
2022/11/08 03:56:24;;;;;;;0.10;0.10;;;11.80;99.90;;;;;;5057692;28;20040;-64
2022/11/08 03:58:50;;;;;;;0.13;0.13;;;11.90;99.90;;;;;;5068126;28;20036;-63
2022/11/08 04:01:16;;;;;;;0.10;0.10;;;11.80;99.90;;;;;;5067270;28;20516;-64
2022/11/08 04:03:41;;;;;;;0.10;0.10;;;11.80;99.90;;;;;;5055695;28;20115;-68
2022/11/08 04:06:07;;;;;;;0.10;0.10;;;11.80;99.90;;;;;;5050223;28;20056;-65
2022/11/08 04:08:33;;;;;;;0.20;0.20;;;11.80;99.90;;;;;;5034654;28;20037;-64
2022/11/08 04:15:13;;;;;;;0.10;0.10;;;11.80;99.90;;;;;;5055879;28;20434;-65
2022/11/08 04:16:31;;;;;;;0.10;0.10;;;11.70;99.90;;;;;;5052594;28;20083;-64
2022/11/08 04:21:47;;;;;;;0.10;0.10;;;11.70;99.90;;;;;;5050029;28;20099;-64
2022/11/08 04:24:13;;;;;;;0.20;0.20;;;11.80;99.90;;;;;;5059436;28;20044;-64
2022/11/08 04:26:41;;;;;;;4.05;3.50;;;11.80;99.90;;;;;;5052095;28;20571;-65
2022/11/08 04:29:08;;;;;;;0.30;0.30;;;11.80;99.90;;;;;;5053530;28;20040;-65
2022/11/08 04:31:35;;;;;;;0.10;0.10;;;11.80;99.90;;;;;;5071184;28;20052;-64
2022/11/08 04:34:01;;;;;;;0.10;0.10;;;11.80;99.90;;;;;;5049656;28;20037;-64
2022/11/08 04:36:26;;;;;;;0.20;0.20;;;11.80;99.90;;;;;;5061731;28;20037;-64
2022/11/08 04:38:52;;;;;;;0.03;0.03;;;11.80;99.90;;;;;;5033854;28;20050;-64
2022/11/08 04:41:20;;;;;;;0.32;0.30;;;11.80;99.90;;;;;;5049228;28;20056;-64
2022/11/08 04:43:46;;;;;;;0.20;0.20;;;11.80;99.90;;;;;;5033085;28;20431;-65
2022/11/08 04:46:15;;;;;;;0.10;0.10;;;11.80;99.90;;;;;;5050500;28;20132;-64
2022/11/08 04:48:42;;;;;;;0.10;0.10;;;11.80;99.90;;;;;;5037962;28;20045;-64
2022/11/08 04:51:16;;;;;;;5.93;0.90;;;11.80;99.90;;;;;;5055195;28;20425;-64
2022/11/08 04:53:43;;;;;;;0.10;0.10;;;11.70;99.90;;;;;;5049795;28;20046;-64
2022/11/08 04:56:14;;;;;;;0.10;0.10;;;11.70;99.90;;;;;;5049388;28;20084;-64
2022/11/08 04:58:44;;;;;;;4.05;1.10;;;11.70;99.90;;;;;;5052244;28;20373;-64
2022/11/08 05:01:13;;;;;;;0.10;0.10;;;11.60;99.90;;;;;;5049623;28;20140;-64
2022/11/08 05:03:39;;;;;;;0.03;0.03;;;11.60;99.90;;;;;;5059639;28;20098;-64
2022/11/08 05:06:11;;;;;;;0.20;0.20;;;11.60;99.90;;;;;;5054587;28;20037;-64
2022/11/08 05:08:38;;;;;;;0.10;0.10;;;11.60;99.90;;;;;;5051025;28;20530;-64
2022/11/08 05:11:16;;;;;;;0.10;0.10;;;11.60;99.90;;;;;;5049961;28;20076;-64
2022/11/08 05:13:42;;;;;;;0.10;0.10;;;11.50;99.90;;;;;;5035502;28;20055;-63
2022/11/08 05:16:14;;;;;;;0.10;0.10;;;11.60;99.90;;;;;;5064810;28;20037;-64
2022/11/08 05:18:40;;;;;;;0.10;0.10;;;11.50;99.90;;;;;;5033042;28;20060;-64
2022/11/08 05:23:52;;;;;;;0.20;0.20;;;11.50;99.90;;;;;;5069621;28;20040;-64
2022/11/08 05:26:19;;;;;;;0.10;0.10;;;11.50;99.90;;;;;;5062714;28;20619;-64
2022/11/08 05:28:45;;;;;;;0.20;0.20;;;11.50;99.90;;;;;;5052120;28;20041;-64
2022/11/08 05:31:11;;;;;;;0.10;0.10;;;11.50;99.90;;;;;;5067968;28;20055;-64
2022/11/08 05:33:37;;;;;;;1.23;1.17;;;11.50;99.90;;;;;;5053579;28;20053;-64
2022/11/08 05:36:05;;;;;;;1.00;1.00;;;11.50;99.90;;;;;;5058895;28;20044;-64
2022/11/08 05:38:31;;;;;;;0.10;0.10;;;11.50;99.90;;;;;;5067585;28;20041;-64
2022/11/08 05:41:07;;;;;;;3.95;1.48;;;11.40;99.90;;;;;;5051623;28;20051;-65
2022/11/08 05:43:33;;;;;;;0.10;0.10;;;11.50;99.90;;;;;;5050205;28;20048;-64
2022/11/08 05:45:59;;;;;;;0.10;0.10;;;11.50;99.90;;;;;;5048540;28;20045;-65
2022/11/08 05:48:25;;;;;;;0.20;0.20;;;11.50;99.90;;;;;;5058346;28;20479;-64
2022/11/08 05:50:50;;;;;;;0.63;0.63;;;11.50;99.90;;;;;;5069377;28;20068;-64
2022/11/08 05:53:16;;;;;;;0.30;0.30;;;11.50;99.90;;;;;;5047592;28;20911;-64
2022/11/08 05:55:42;;;;;;;0.50;0.50;;;11.50;99.90;;;;;;5050105;28;20041;-64
2022/11/08 05:58:08;;;;;;;0.20;0.20;;;11.50;99.90;;;;;;5048293;28;20085;-64
2022/11/08 06:00:34;;;;;;;1.48;1.38;;;11.50;99.90;;;;;;5064023;28;20052;-64
2022/11/08 06:03:04;;;;;;;0.10;0.10;;;11.50;99.90;;;;;;5048048;28;20102;-64
2022/11/08 06:05:30;;;;;;;0.20;0.20;;;11.50;99.90;;;;;;5049098;28;20519;-64
2022/11/08 06:07:56;;;;;;;0.00;0.00;;;11.50;99.90;;;;;;5049705;28;20044;-64
2022/11/08 06:10:22;;;;;;;0.10;0.10;;;11.50;99.90;;;;;;5049829;28;20049;-64
2022/11/08 06:12:48;;;;;;;0.10;0.10;;;11.50;99.90;;;;;;5034152;28;20045;-64
2022/11/08 06:15:14;;;;;;;3.35;1.60;;;11.50;99.90;;;;;;5052418;28;20064;-64
2022/11/08 06:17:40;;;;;;;0.10;0.10;;;11.60;99.90;;;;;;5060780;28;20045;-64
2022/11/08 06:20:07;;;;;;;0.10;0.10;;;11.60;99.90;;;;;;5061843;28;20124;-64
2022/11/08 06:22:34;;;;;;;0.10;0.10;;;11.60;99.90;;;;;;5053490;28;20076;-65
2022/11/08 06:24:59;;;;;;;0.20;0.20;;;11.60;99.90;;;;;;5053084;28;20503;-64
2022/11/08 06:27:26;;;;;;;0.32;0.32;;;11.70;99.90;;;;;;5072665;28;20037;-64
2022/11/08 06:29:52;;;;;;;1.85;1.10;;;11.60;99.90;;;;;;5069746;28;20044;-64
2022/11/08 06:32:17;;;;;;;0.20;0.20;;;11.70;99.90;;;;;;5052140;28;20076;-64
2022/11/08 06:34:45;;;;;;;0.00;0.00;;;11.70;99.90;;;;;;5056255;28;20202;-64
2022/11/08 06:37:11;;;;;;;0.10;0.10;;;11.70;99.90;;;;;;5053656;28;20049;-64
2022/11/08 06:39:37;;;;;;;0.20;0.20;;;11.70;99.90;;;;;;5052090;28;20476;-64
2022/11/08 06:42:03;;;;;;;0.30;0.30;;;11.70;99.90;;;;;;5051548;28;20064;-64
2022/11/08 06:44:29;;;;;;;0.38;0.38;;;11.70;99.90;;;;;;5058398;28;20041;-64
2022/11/08 06:46:55;;;;;;;0.13;0.13;;;11.70;99.90;;;;;;5064348;28;20044;-64
2022/11/08 06:49:22;;;;;;;0.13;0.13;;;11.80;99.90;;;;;;5054645;28;20064;-64
2022/11/08 06:51:49;;;;;;;1.35;1.35;;;11.80;99.90;;;;;;5060681;28;20044;-64
2022/11/08 06:54:15;;;;;;;0.40;0.40;;;11.80;99.90;;;;;;5051391;28;20086;-64
2022/11/08 06:56:40;;;;;;;0.30;0.30;;;11.80;99.90;;;;;;5032806;28;20048;-64
2022/11/08 06:59:06;;;;;;;0.00;0.00;;;11.80;99.90;;;;;;5041969;28;20045;-64
2022/11/08 07:01:31;;;;;;;0.10;0.10;;;11.70;99.90;;;;;;5053596;28;20055;-64
2022/11/08 07:03:57;;;;;;;0.10;0.10;;;11.70;99.90;;;;;;5051746;28;20519;-64
2022/11/08 07:06:22;;;;;;;0.10;0.10;;;11.80;99.90;;;;;;5069278;28;20445;-64
2022/11/08 07:08:48;;;;;;;0.40;0.40;;;11.70;99.90;;;;;;5071454;28;20383;-64
2022/11/08 07:11:14;;;;;;;0.10;0.10;;;11.70;99.90;;;;;;5070054;28;20048;-64
2022/11/08 07:13:40;;;;;;;0.10;0.10;;;11.80;99.90;;;;;;5051966;28;20045;-64
2022/11/08 07:16:06;;;;;;;0.00;0.00;;;11.80;99.90;;;;;;5050788;28;20095;-64
2022/11/08 07:18:31;;;;;;;0.10;0.10;;;11.80;99.90;;;;;;5056444;28;20080;-64
2022/11/08 07:20:59;;;;;;;0.20;0.20;;;11.80;99.90;;;;;;5050866;28;20084;-64
2022/11/08 07:23:25;;;;;;;0.10;0.10;;;11.70;99.90;;;;;;5050852;28;20120;-64
2022/11/08 07:25:51;;;;;;;0.10;0.10;;;11.70;99.90;;;;;;5064456;28;20495;-63
2022/11/08 07:28:17;;;;;;;1.65;0.82;;;11.80;99.90;;;;;;5058380;28;20040;-63
2022/11/08 07:30:45;;;;;;;0.32;0.32;;;11.70;99.90;;;;;;5057774;28;20090;-64
2022/11/08 07:33:11;;;;;;;0.10;0.10;;;11.80;99.90;;;;;;5051428;28;20117;-64
2022/11/08 07:35:37;;;;;;;0.10;0.10;;;11.80;99.90;;;;;;5050529;28;20095;-64
2022/11/08 07:38:03;;;;;;;0.50;0.50;;;11.80;99.90;;;;;;5058125;28;20049;-64
2022/11/08 07:40:30;;;;;;;0.52;0.52;;;11.70;99.90;;;;;;5051269;28;20053;-63
2022/11/08 07:42:58;;;;;;;0.10;0.10;;;11.80;99.90;;;;;;5066592;28;20049;-63
2022/11/08 07:45:24;;;;;;;0.00;0.00;;;11.80;99.90;;;;;;5069466;28;20537;-63
2022/11/08 07:48:00;;;;;;;0.00;0.00;;;11.70;99.90;;;;;;5061435;28;20059;-66
2022/11/08 07:50:27;;;;;;;0.10;0.10;;;11.70;99.90;;;;;;5061788;28;20041;-65
2022/11/08 07:52:53;;;;;;;0.10;0.10;;;11.70;99.90;;;;;;5062060;28;20439;-66
2022/11/08 07:55:19;;;;;;;6.70;1.75;;;11.80;99.90;;;;;;5056648;28;20049;-66
2022/11/08 07:57:44;;;;;;;0.73;0.73;;;11.80;99.90;;;;;;5055836;28;20033;-65
2022/11/08 08:00:11;;;;;;;0.47;0.47;;;11.80;99.90;;;;;;5054489;28;20052;-66
2022/11/08 08:02:36;;;;;;;0.10;0.10;;;11.80;99.90;;;;;;5061211;28;20074;-64
2022/11/08 08:05:03;;;;;;;1.00;1.00;;;11.80;99.90;;;;;;5060411;28;20068;-64
2022/11/08 08:07:28;;;;;;;0.17;0.17;;;11.90;99.90;;;;;;5059970;28;20395;-64
2022/11/08 08:09:54;;;;;;;0.10;0.10;;;11.90;99.90;;;;;;5057821;28;20037;-64
2022/11/08 08:12:20;;;;;;;0.90;0.73;;;11.90;99.90;;;;;;5065249;28;20531;-64
2022/11/08 08:14:45;;;;;;;0.10;0.10;;;11.90;99.90;;;;;;5047951;28;20496;-64
2022/11/08 08:17:11;;;;;;;0.20;0.20;;;12.00;99.90;;;;;;5050592;28;20052;-64
2022/11/08 08:19:36;;;;;;;0.10;0.10;;;12.00;99.90;;;;;;5061897;28;20040;-64
2022/11/08 08:22:02;;;;;;;0.10;0.10;;;12.00;99.90;;;;;;5062764;28;20048;-64
2022/11/08 08:24:28;;;;;;;0.22;0.22;;;12.10;99.90;;;;;;5050997;28;20049;-64
2022/11/08 08:26:54;;;;;;;0.20;0.20;;;12.10;99.90;;;;;;5052588;28;20369;-64
2022/11/08 08:29:20;;;;;;;0.00;0.00;;;12.10;99.90;;;;;;5052164;28;20310;-64
2022/11/08 08:31:45;;;;;;;0.20;0.20;;;12.20;99.90;;;;;;5050120;28;20049;-64
2022/11/08 08:34:11;;;;;;;0.10;0.10;;;12.20;99.90;;;;;;5063494;28;20138;-63
2022/11/08 08:36:36;;;;;;;0.00;0.00;;;12.20;99.90;;;;;;5063843;28;20048;-63
2022/11/08 08:39:02;;;;;;;0.10;0.10;;;12.30;99.90;;;;;;5062943;28;20068;-63
2022/11/08 08:41:28;;;;;;;0.10;0.10;;;12.30;99.90;;;;;;5066550;28;20131;-63
2022/11/08 08:43:54;;;;;;;0.10;0.10;;;12.30;99.90;;;;;;5065729;28;20044;-64
2022/11/08 08:46:19;;;;;;;0.00;0.00;;;12.30;99.90;;;;;;5048110;28;20037;-64
2022/11/08 08:48:45;;;;;;;0.10;0.10;;;12.30;99.90;;;;;;5069234;28;20051;-64
2022/11/08 08:51:11;;;;;;;0.45;0.30;;;12.40;99.90;;;;;;5050450;28;20543;-64
2022/11/08 08:53:37;;;;;;;0.17;0.17;;;12.30;99.90;;;;;;5069836;28;20098;-64
2022/11/08 08:56:06;;;;;;;0.10;0.10;;;12.40;99.90;;;;;;5069055;28;20078;-64
2022/11/08 08:58:32;;;;;;;0.10;0.10;;;12.40;99.90;;;;;;5065113;28;20037;-64
2022/11/08 09:01:02;;;;;;;2.00;1.85;;;12.40;99.90;;;;;;5048779;28;20537;-64
2022/11/08 09:03:28;;;;;;;0.20;0.20;;;12.40;99.90;;;;;;5052380;28;20033;-64
2022/11/08 09:05:56;;;;;;;0.10;0.10;;;12.40;99.90;;;;;;5068081;28;20040;-64
2022/11/08 09:08:23;;;;;;;0.10;0.10;;;12.40;99.90;;;;;;5049495;28;20045;-64
2022/11/08 09:10:53;;;;;;;0.10;0.10;;;12.50;99.90;;;;;;5046550;28;20067;-64
2022/11/08 09:13:20;;;;;;;0.10;0.10;;;12.50;99.90;;;;;;5049803;28;20044;-64
2022/11/08 09:15:45;;;;;;;1.48;1.38;;;12.50;99.90;;;;;;5068882;28;20087;-64
2022/11/08 09:18:11;;;;;;;0.25;0.25;;;12.50;99.90;;;;;;5047878;28;20099;-64
2022/11/08 09:20:37;;;;;;;0.20;0.20;;;12.50;99.90;;;;;;5067479;28;20557;-64
2022/11/08 09:23:03;;;;;;;0.10;0.10;;;12.50;99.90;;;;;;5069230;28;20056;-64
2022/11/08 09:25:28;;;;;;;9.43;2.55;;;12.60;99.90;;;;;;5054541;28;20045;-64
2022/11/08 09:27:54;;;;;;;0.10;0.10;;;12.50;99.90;;;;;;5051467;28;20492;-64
2022/11/08 09:30:20;;;;;;;0.28;0.28;;;12.60;99.90;;;;;;5051665;28;20057;-64
2022/11/08 09:32:46;;;;;;;0.10;0.10;;;12.60;99.90;;;;;;5061707;28;20464;-64
2022/11/08 09:35:11;;;;;;;0.10;0.10;;;12.60;99.90;;;;;;5053963;28;20132;-64
2022/11/08 09:37:37;;;;;;;0.20;0.20;;;12.60;99.90;;;;;;5068145;28;20072;-64
2022/11/08 09:40:03;;;;;;;0.25;0.25;;;12.70;99.90;;;;;;5068085;28;20691;-65
2022/11/08 09:42:39;;;;;;;0.10;0.10;;;12.70;99.90;;;;;;5058770;28;20037;-64
2022/11/08 09:45:11;;;;;;;0.52;0.52;;;12.70;99.90;;;;;;5057628;28;20052;-64
2022/11/08 09:47:42;;;;;;;0.75;0.75;;;12.70;99.90;;;;;;5066877;28;20412;-64
2022/11/08 09:50:30;;;;;;;0.03;0.03;;;12.80;99.90;;;;;;5057549;28;20390;-64
2022/11/08 09:53:19;;;;;;;0.20;0.20;;;12.90;99.90;;;;;;5056464;28;20445;-64
2022/11/08 09:55:55;;;;;;;0.13;0.13;;;12.80;99.90;;;;;;5047733;28;20049;-64
2022/11/08 09:58:41;;;;;;;0.10;0.10;;;12.80;99.90;;;;;;5055166;28;20094;-65
2022/11/08 10:01:10;;;;;;;0.10;0.10;;;12.90;99.90;;;;;;5052902;28;20095;-65
2022/11/08 10:03:36;;;;;;;1.02;0.90;;;12.90;99.90;;;;;;5057698;28;20063;-65
2022/11/08 10:06:16;;;;;;;0.22;0.22;;;12.90;99.90;;;;;;5045688;28;20048;-65
2022/11/08 10:09:35;;;;;;;0.10;0.10;;;12.90;99.90;;;;;;5057829;28;20080;-65
2022/11/08 10:12:03;;;;;;;1.77;1.65;;;12.90;99.90;;;;;;4979184;28;20049;-65
2022/11/08 10:14:54;;;;;;;0.35;0.35;;;12.90;99.90;;;;;;5037887;28;20061;-65
2022/11/08 10:17:41;;;;;;;0.10;0.10;;;12.90;99.90;;;;;;5053158;28;20051;-65
2022/11/08 10:20:53;;;;;;;0.20;0.20;;;12.90;99.90;;;;;;5052149;28;20060;-65
2022/11/08 10:23:21;;;;;;;0.55;0.38;;;12.90;99.90;;;;;;4988221;28;20042;-65
2022/11/08 10:25:49;;;;;;;0.25;0.25;;;12.90;99.90;;;;;;4989049;28;20060;-65
2022/11/08 10:28:17;;;;;;;0.30;0.30;;;12.90;99.90;;;;;;5021929;28;20060;-65
2022/11/08 10:30:48;;;;;;;0.10;0.10;;;13.00;99.90;;;;;;5035347;28;20131;-65
2022/11/08 10:33:27;;;;;;;0.50;0.50;;;13.00;99.90;;;;;;5050624;28;20052;-65
2022/11/08 10:35:59;;;;;;;0.28;0.28;;;12.90;99.90;;;;;;5048616;28;20063;-65
2022/11/08 10:38:41;;;;;;;0.68;0.68;;;13.00;99.90;;;;;;5070483;28;20058;-65
2022/11/08 10:41:34;;;;;;;0.68;0.68;;;13.00;99.90;;;;;;5052365;28;20127;-65
2022/11/08 10:44:04;;;;;;;0.68;0.68;;;13.00;99.90;;;;;;5065450;28;20090;-65
2022/11/08 10:46:40;;;;;;;0.00;0.00;;;13.00;99.90;;;;;;5062985;28;20059;-65
2022/11/08 10:49:30;;;;;;;0.30;0.30;;;13.10;99.90;;;;;;5054598;28;20079;-65
2022/11/08 10:51:58;;;;;;;0.30;0.30;;;13.20;99.90;;;;;;5047402;28;20052;-65
2022/11/08 10:54:43;;;;;;;0.10;0.10;;;13.20;99.90;;;;;;5041116;28;20079;-65
2022/11/08 10:57:15;;;;;;;0.20;0.20;;;13.20;99.90;;;;;;5053197;28;20052;-65
2022/11/08 10:59:41;;;;;;;0.15;0.15;;;13.30;99.90;;;;;;5051445;28;20037;-64
2022/11/08 11:02:18;;;;;;;0.22;0.22;;;13.30;99.90;;;;;;5051970;28;20053;-65
2022/11/08 11:04:45;;;;;;;0.10;0.10;;;13.30;99.90;;;;;;5052271;28;20385;-64
2022/11/08 11:07:31;;;;;;;0.10;0.10;;;13.40;99.90;;;;;;5051184;28;20049;-65
2022/11/08 11:09:57;;;;;;;0.00;0.00;;;13.50;99.90;;;;;;5052051;28;20128;-64
2022/11/08 11:12:22;;;;;;;0.10;0.10;;;13.50;99.90;;;;;;5062431;28;20086;-64
2022/11/08 11:14:56;;;;;;;0.10;0.10;;;13.50;99.90;;;;;;5068631;28;20037;-65
2022/11/08 11:17:30;;;;;;;2.65;1.00;;;13.60;99.90;;;;;;5051911;28;20099;-65
2022/11/08 11:19:57;;;;;;;0.10;0.10;;;13.50;99.90;;;;;;5056879;28;20037;-65
2022/11/08 11:22:30;;;;;;;0.10;0.10;;;13.60;99.90;;;;;;5065724;28;20051;-65
2022/11/08 11:25:02;;;;;;;0.10;0.10;;;13.60;99.90;;;;;;5066903;28;20051;-65
2022/11/08 11:27:33;;;;;;;0.10;0.10;;;13.60;99.90;;;;;;5054395;28;20060;-65
2022/11/08 11:30:23;;;;;;;0.00;0.00;;;13.70;99.90;;;;;;5070395;28;20076;-66
2022/11/08 11:33:25;;;;;;;0.10;0.10;;;13.90;99.90;;;;;;5071044;28;20474;-64
2022/11/08 11:36:05;;;;;;;0.13;0.13;;;13.90;99.90;;;;;;5051992;28;20189;-65
2022/11/08 11:38:50;;;;;;;0.40;0.40;;;14.00;99.90;;;;;;5071057;28;20055;-65
2022/11/08 11:41:52;;;;;;;1.08;0.98;;;14.20;99.90;;;;;;5063939;28;20216;-64
2022/11/08 11:44:29;;;;;;;0.20;0.20;;;14.30;99.90;;;;;;5032109;28;20526;-65
2022/11/08 11:47:11;;;;;;;0.05;0.05;;;14.30;99.90;;;;;;5067049;28;20045;-65
2022/11/08 11:49:41;;;;;;;0.10;0.10;;;14.30;99.90;;;;;;5058919;28;20041;-65
2022/11/08 11:52:18;;;;;;;0.10;0.10;;;14.30;99.90;;;;;;5065521;28;20040;-64
2022/11/08 11:54:46;;;;;;;0.57;0.57;;;14.40;99.90;;;;;;5049216;28;20076;-64
2022/11/08 11:57:43;;;;;;;0.20;0.20;;;14.50;99.90;;;;;;5050095;28;20037;-65
2022/11/08 12:00:13;;;;;;;0.10;0.10;;;14.50;99.90;;;;;;5050910;28;20396;-65
2022/11/08 12:02:58;;;;;;;0.10;0.10;;;14.50;99.90;;;;;;5055562;28;20087;-64
2022/11/08 12:06:13;;;;;;;0.57;0.38;;;14.50;99.90;;;;;;5050712;28;20048;-65
2022/11/08 12:08:56;;;;;;;;;;;14.50;99.90;;;;;;4990027;28;20046;-65
2022/11/08 12:11:28;;;;;;;0.10;0.10;;;14.60;99.90;;;;;;5050021;28;19920;-65
2022/11/08 12:14:12;;;;;;;0.25;0.25;;;14.60;99.90;;;;;;5069681;28;20530;-64
2022/11/08 12:17:01;;;;;;;0.10;0.10;;;14.60;99.90;;;;;;5056698;28;20518;-64
2022/11/08 12:19:51;;;;;;;0.10;0.10;;;14.70;99.90;;;;;;5051577;28;20396;-65
2022/11/08 12:22:29;;;;;;;0.52;0.52;;;14.70;99.90;;;;;;5056209;28;20147;-65
2022/11/08 12:25:16;;;;;;;0.15;0.15;;;14.80;99.90;;;;;;5050107;28;20270;-65
2022/11/08 12:27:59;;;;;;;0.32;0.32;;;14.80;99.90;;;;;;5051871;28;20040;-65
2022/11/08 12:30:36;;;;;;;0.30;0.30;;;14.90;99.90;;;;;;5054920;28;20071;-65
2022/11/08 12:33:26;;;;;;;0.30;0.30;;;15.10;99.90;;;;;;5049240;28;20049;-65
2022/11/08 12:36:17;;;;;;;0.20;0.20;;;15.20;99.90;;;;;;5050114;28;20080;-65
2022/11/08 12:39:12;;;;;;;0.57;0.57;;;15.40;99.90;;;;;;5052730;28;20090;-65
2022/11/08 12:41:48;;;;;;;0.17;0.17;;;15.60;99.90;;;;;;5039596;28;20058;-65
2022/11/08 12:44:38;;;;;;;0.10;0.10;;;15.80;99.90;;;;;;5061819;28;20123;-64
2022/11/08 12:47:29;;;;;;;0.00;0.00;;;15.90;99.90;;;;;;5059368;28;20036;-65
2022/11/08 12:50:26;;;;;;;0.82;0.82;;;16.00;99.90;;;;;;5055154;28;20037;-65
2022/11/08 12:53:22;;;;;;;0.55;0.50;;;16.30;99.90;;;;;;5065682;28;20052;-65
2022/11/08 12:55:50;;;;;;;1.55;0.65;;;16.20;99.90;;;;;;5057903;28;20499;-65
2022/11/08 12:58:25;;;;;;;0.35;0.35;;;16.40;99.90;;;;;;5055704;28;20040;-65
2022/11/08 13:00:56;;;;;;;0.55;0.55;;;16.50;99.90;;;;;;5060906;28;20369;-65
2022/11/08 13:03:45;;;;;;;0.10;0.10;;;16.40;99.90;;;;;;5070329;28;20052;-65
2022/11/08 13:06:20;;;;;;;0.10;0.10;;;16.50;99.90;;;;;;5014420;28;20053;-65
2022/11/08 13:09:06;;;;;;;0.10;0.10;;;16.40;99.90;;;;;;5054426;28;20098;-65
2022/11/08 13:11:41;;;;;;;0.20;0.20;;;16.60;99.90;;;;;;5055824;28;20048;-65
2022/11/08 13:14:16;;;;;;;1.30;1.00;;;16.60;99.90;;;;;;5045356;28;20118;-65
2022/11/08 13:16:44;;;;;;;0.30;0.30;;;16.50;99.90;;;;;;5050289;28;20114;-65
2022/11/08 13:19:27;;;;;;;0.00;0.00;;;16.30;99.90;;;;;;5031519;28;20095;-65
2022/11/08 13:21:53;;;;;;;;;;;16.20;99.90;;;;;;5051674;28;20063;-66